Latest Weather Observations for Giles*

IDD60801

Issued at 8:01 pm CST Tuesday 23 October 2018 (issued every 10 minutes, with the page automatically refreshed every 10 minutes)

About weather observations | Map of weather stations | Latest weather observations for NT | Other Formats
Station Details ID: 013017 Name: GILES METEOROLOGICAL OFFICE Lat: -25.03 Lon: 128.30 Height: 598.0 m
Data from the previous 72 hours. | See also: Recent months at Giles*

* Giles observations are collected in the South Australia time zone, which includes daylight saving in the summer period. Therefore, Rain since 9am value is with respect to South Australia local time.

Date/Time
CST
Temp
°C
App
Temp
°C
Dew
Point
°C
Rel
Hum
%
Delta-T
°C
Wind Press
QNH
hPa
Press
MSL
hPa
Rain since
9am
mm
Dir  Spd
km/h
Gust
km/h
Spd
kts
Gust
kts
23/07:30pm 31.7 25.9 -9.0 6 17.4 SSW 15 20 8 11 1012.4 1008.9 0.0
23/07:00pm 33.0 28.8 -7.8 7 18.0 SSW 7 11 4 6 1012.0 1008.4 0.0
23/06:30pm 34.3 29.6 -8.8 6 18.9 SSW 9 15 5 8 1011.7 1008.2 0.0
23/06:00pm 35.1 29.6 -9.8 5 19.5 SSW 13 17 7 9 1011.5 1008.0 0.0
23/05:30pm 35.6 29.5 -12.5 4 20.1 S 15 24 8 13 1011.3 1007.8 0.0
23/05:00pm 34.8 31.0 -6.0 7 18.8 SE 6 13 3 7 1011.3 1007.8 0.0
23/04:30pm 35.0 30.1 -7.2 6 19.1 SE 11 22 6 12 1011.4 1007.9 0.0
23/04:00pm 34.7 30.2 -7.1 6 18.9 SE 9 17 5 9 1011.4 1007.9 0.0
23/03:30pm 35.8 30.1 -12.3 4 20.2 SE 13 24 7 13 1011.6 1008.1 0.0
23/03:00pm 34.8 29.5 -7.4 6 19.0 SE 13 22 7 12 1012.1 1008.6 0.0
23/02:30pm 34.7 29.2 -10.1 5 19.3 ENE 13 24 7 13 1012.4 1008.9 0.0
23/02:00pm 35.0 29.3 -7.3 6 19.1 SE 15 24 8 13 1012.8 1009.3 0.0
23/01:30pm 34.3 29.4 -3.2 9 18.0 ESE 13 28 7 15 1013.1 1009.6 0.0
23/01:00pm 33.4 27.5 -5.7 8 17.9 SE 17 30 9 16 1013.8 1010.3 0.0
23/12:30pm 32.3 26.3 -2.7 10 16.7 ESE 19 30 10 16 1014.3 1010.8 0.0
23/12:00pm 32.7 27.3 -1.1 11 16.6 ESE 17 28 9 15 1014.7 1011.2 0.0
23/11:30am 30.8 24.9 -0.8 13 15.4 E 20 32 11 17 1015.3 1011.9 0.0
23/11:00am 29.4 22.3 -0.9 14 14.6 ESE 26 37 14 20 1015.6 1012.1 0.0
23/10:30am 28.4 21.5 0.0 16 13.8 ESE 26 37 14 20 1015.9 1012.4 0.0
23/10:00am 28.0 21.6 0.7 17 13.4 SE 24 41 13 22 1015.9 1012.4 0.0
23/09:30am 26.6 19.9 1.4 19 12.4 ESE 26 39 14 21 1015.8 1012.3 0.0
23/09:00am 25.4 18.8 2.2 22 11.5 ESE 26 37 14 20 1015.8 1012.3 0.0
23/08:30am 24.1 17.2 2.4 24 10.7 SE 28 39 15 21 1015.8 1012.3 0.0
23/08:00am 22.7 15.8 2.7 27 9.8 SE 28 39 15 21 1015.8 1012.3 0.0
23/07:30am 21.5 15.0 2.5 28 9.2 SE 26 33 14 18 1015.2 1011.8 0.0
23/07:00am 20.5 14.3 2.1 29 8.8 SE 24 33 13 18 1014.9 1011.4 0.0
23/06:30am 19.7 13.7 1.3 29 8.6 SE 22 28 12 15 1014.8 1011.3 0.0
23/06:00am 19.8 13.7 0.5 27 8.9 SE 22 30 12 16 1014.0 1010.5 0.0
23/05:30am 20.2 14.1 0.5 27 9.1 SSE 22 28 12 15 1013.8 1010.3 0.0
23/05:00am 20.6 14.8 -0.2 25 9.5 SSE 20 28 11 15 1013.5 1010.1 0.0
23/04:30am 21.0 15.1 -0.5 23 9.8 S 20 26 11 14 1013.2 1009.7 0.0
23/04:00am 21.5 16.1 -1.0 22 10.2 S 17 24 9 13 1013.1 1009.6 0.0
23/03:30am 21.4 16.5 -0.8 22 10.1 S 15 17 8 9 1013.0 1009.5 0.0
23/03:00am 22.0 17.3 -1.9 20 10.7 S 13 17 7 9 1012.9 1009.4 0.0
23/02:30am 22.9 17.4 -2.4 18 11.3 S 17 22 9 12 1012.9 1009.4 0.0
23/02:00am 23.5 17.8 -3.6 16 11.9 S 17 24 9 13 1012.9 1009.4 0.0
23/01:30am 23.9 17.7 -4.5 15 12.3 S 19 24 10 13 1013.0 1009.5 0.0
23/01:00am 25.0 18.5 -5.6 13 13.1 S 20 28 11 15 1013.2 1009.7 0.0
23/12:30am 24.3 18.3 -6.6 12 12.9 SW 17 24 9 13 1013.1 1009.6 0.0
23/12:00am 24.1 18.6 -5.5 13 12.6 SW 15 17 8 9 1013.3 1009.8 0.0
 
Date/Time
CST
Temp
°C
App
Temp
°C
Dew
Point
°C
Rel
Hum
%
Delta-T
°C
Wind Press
QNH
hPa
Press
MSL
hPa
Rain since
9am
mm
Dir  Spd
km/h
Gust
km/h
Spd
kts
Gust
kts
22/11:30pm 24.6 19.3 -6.8 12 13.1 SW 13 15 7 8 1013.2 1009.7 0.0
22/11:00pm 25.5 20.5 -8.1 10 13.8 SW 11 15 6 8 1013.3 1009.8 0.0
22/10:30pm 26.3 20.9 -8.5 9 14.3 SW 13 15 7 8 1013.3 1009.8 0.0
22/10:00pm 27.8 21.4 -11.3 7 15.5 SW 17 20 9 11 1013.2 1009.7 0.0
22/09:30pm 28.3 22.1 -14.2 5 16.1 SW 15 20 8 11 1012.9 1009.4 0.0
22/09:00pm 27.8 22.6 -11.3 7 15.5 SW 11 13 6 7 1012.5 1009.0 0.0
22/08:30pm 29.1 23.3 -14.8 5 16.6 SW 13 17 7 9 1012.2 1008.7 0.0
22/08:00pm 30.3 24.5 -14.1 5 17.2 SW 13 15 7 8 1011.7 1008.2 0.0
22/07:30pm 31.7 26.4 -12.2 5 17.8 SW 11 15 6 8 1011.4 1007.9 0.0
22/07:00pm 34.2 28.2 -18.6 3 19.8 SW 13 19 7 10 1011.0 1007.5 0.0
22/06:30pm 35.8 29.6 -23.5 2 21.0 WSW 13 24 7 13 1010.8 1007.3 0.0
22/06:00pm 36.3 29.6 -29.3 1 21.5 WSW 15 26 8 14 1010.6 1007.1 0.0
22/05:30pm 36.9 29.9 -27.5 1 21.8 W 17 32 9 17 1010.5 1007.0 0.0
22/05:19pm 37.0 29.4 -28.9 1 21.9 W 20 43 11 23 1010.5 1007.0 0.0
22/05:00pm 37.5 31.3 -26.0 1 22.1 WNW 13 22 7 12 1010.5 1007.0 0.0
22/04:30pm 37.3 31.8 -9.5 5 20.8 WNW 13 24 7 13 1010.6 1007.1 0.0
22/04:00pm 37.7 29.7 -32.6 1 22.4 W 22 37 12 20 1010.7 1007.2 0.0
22/03:30pm 36.5 29.2 -18.0 2 21.1 NW 20 35 11 19 1011.0 1007.5 0.0
22/03:00pm 37.0 29.6 -21.5 2 21.6 W 20 30 11 16 1011.5 1008.0 0.0
22/02:30pm 37.2 28.5 -28.7 1 22.0 W 26 39 14 21 1011.7 1008.2 0.0
22/02:08pm 36.4 27.3 -24.9 1 21.4 WNW 28 46 15 25 1012.1 1008.6 0.0
22/02:00pm 37.1 28.3 -31.1 1 22.0 WNW 26 39 14 21 1012.2 1008.7 0.0
22/01:30pm 36.7 28.8 -25.7 1 21.6 NW 22 41 12 22 1012.5 1009.0 0.0
22/01:00pm 37.3 29.9 -20.3 2 21.7 W 20 30 11 16 1013.1 1009.6 0.0
22/12:30pm 36.0 28.5 -23.6 1 21.1 WNW 20 39 11 21 1013.3 1009.8 0.0
22/12:00pm 34.7 29.5 -11.1 5 19.4 NNW 11 24 6 13 1013.6 1010.2 0.0
22/11:30am 35.4 29.2 -15.0 3 20.2 N 15 33 8 18 1014.2 1010.7 0.0
22/11:00am 34.1 27.6 -13.5 4 19.3 N 17 26 9 14 1014.5 1011.0 0.0
22/10:30am 33.5 27.3 -14.1 4 19.0 WSW 15 24 8 13 1014.7 1011.2 0.0
22/10:00am 32.1 27.9 -7.5 7 17.4 SSW 7 17 4 9 1014.8 1011.3 0.0
22/09:30am 31.3 26.7 -12.7 5 17.6 SSW 7 15 4 8 1014.8 1011.3 0.0
22/09:00am 29.7 24.9 -11.0 6 16.5 SSW 9 13 5 7 1014.8 1011.3 0.0
22/08:30am 28.3 23.0 -11.6 6 15.8 SSW 11 15 6 8 1014.7 1011.2 0.0
22/08:00am 25.9 19.1 -12.5 7 14.6 SW 19 35 10 19 1014.4 1010.9 0.0
22/07:30am 24.7 20.6 -8.3 10 13.4 W 6 9 3 5 1013.5 1010.1 0.0
22/07:00am 19.8 16.2 -7.4 15 10.7 W 4 11 2 6 1013.4 1009.9 0.0
22/06:30am 17.7 13.4 -9.4 15 10.0 W 7 9 4 5 1012.9 1009.4 0.0
22/06:00am 18.8 15.7 -10.4 13 10.7 CALM 0 6 0 3 1012.5 1009.0 0.0
22/05:55am 17.6 13.8 -10.3 14 10.1 NW 4 9 2 5 1012.5 1009.0 0.0
22/05:30am 22.9 18.7 -9.9 10 12.7 NW 6 9 3 5 1012.3 1008.8 0.0
22/05:00am 20.8 17.7 -11.2 10 11.8 CALM 0 0 0 0 1012.2 1008.7 0.0
22/04:30am 21.4 18.0 -9.7 11 11.9 NW 2 7 1 4 1012.1 1008.6 0.0
22/04:00am 19.0 14.8 -8.0 15 10.4 NW 7 9 4 5 1012.3 1008.8 0.0
22/03:30am 22.9 19.2 -4.7 15 11.8 N 6 7 3 4 1012.1 1008.6 0.0
22/03:00am 23.4 19.1 -8.9 11 12.8 NNW 7 9 4 5 1012.4 1008.9 0.0
22/02:30am 23.0 18.9 -6.5 13 12.2 NW 7 9 4 5 1012.7 1009.2 0.0
22/02:00am 18.9 14.7 -9.5 13 10.6 NW 6 7 3 4 1012.9 1009.4 0.0
22/01:45am 20.2 16.0 -10.5 11 11.4 N 6 9 3 5 1013.0 1009.5 0.0
22/01:30am 26.1 21.4 -8.6 9 14.2 NNE 9 11 5 6 1013.1 1009.6 0.0
22/01:07am 21.9 17.3 -7.6 13 11.8 NNE 9 11 5 6 1013.3 1009.8 0.0
22/01:00am 27.0 22.5 -6.8 10 14.4 NNE 9 11 5 6 1013.3 1009.8 0.0
22/12:30am 27.6 23.3 -8.5 9 15.0 NE 7 9 4 5 1013.6 1010.2 0.0
22/12:00am 28.0 23.4 -8.3 9 15.2 NE 9 11 5 6 1014.0 1010.5 0.0
 
Date/Time
CST
Temp
°C
App
Temp
°C
Dew
Point
°C
Rel
Hum
%
Delta-T
°C
Wind Press
QNH
hPa
Press
MSL
hPa
Rain since
9am
mm
Dir  Spd
km/h
Gust
km/h
Spd
kts
Gust
kts
21/11:30pm 27.5 23.2 -8.9 8 15.0 NNE 7 7 4 4 1014.3 1010.8 0.0
21/11:00pm 28.1 23.8 -9.4 8 15.4 NNE 7 9 4 5 1014.5 1011.0 0.0
21/10:30pm 28.3 24.1 -7.3 9 15.2 NNE 7 9 4 5 1014.6 1011.1 0.0
21/10:00pm 28.0 23.4 -8.4 8 15.2 NNE 9 9 5 5 1014.7 1011.2 0.0
21/09:30pm 28.0 23.8 -9.8 8 15.4 NW 6 7 3 4 1014.8 1011.3 0.0
21/09:00pm 27.5 23.3 -7.6 9 14.8 NW 7 9 4 5 1014.6 1011.1 0.0
21/08:30pm 28.2 24.5 -2.7 13 14.3 NW 7 9 4 5 1014.4 1010.9 0.0
21/08:00pm 29.4 25.2 -7.8 8 15.9 NW 7 11 4 6 1014.1 1010.6 0.0
21/07:30pm 30.1 25.5 -7.8 8 16.3 NW 9 11 5 6 1013.8 1010.3 0.0
21/07:00pm 32.0 27.3 -9.2 6 17.6 WNW 9 13 5 7 1013.4 1009.9 0.0
21/06:30pm 33.6 28.6 -13.3 4 19.0 WNW 9 17 5 9 1013.2 1009.7 0.0
21/06:00pm 33.6 28.1 -15.5 3 19.2 SW 11 19 6 10 1013.1 1009.6 0.0
21/05:30pm 34.8 28.5 -16.8 3 20.0 SW 15 22 8 12 1012.9 1009.4 0.0
21/05:00pm 34.5 28.4 -21.0 2 20.1 WSW 13 26 7 14 1012.9 1009.4 0.0
21/04:30pm 34.5 28.7 -14.1 4 19.6 W 13 22 7 12 1013.0 1009.5 0.0
21/04:00pm 34.2 28.8 -13.9 4 19.4 N 11 20 6 11 1013.3 1009.8 0.0
21/03:30pm 34.2 28.9 -12.9 4 19.3 WSW 11 19 6 10 1013.6 1010.2 0.0
21/03:00pm 33.6 28.3 -7.6 6 18.3 NW 13 26 7 14 1014.2 1010.7 0.0
21/02:30pm 33.1 26.8 -9.8 6 18.3 NNW 17 32 9 17 1014.6 1011.1 0.0
21/02:00pm 34.0 29.4 -8.1 6 18.6 WSW 9 15 5 8 1015.0 1011.6 0.0
21/01:30pm 33.1 28.4 -9.1 6 18.2 NE 9 22 5 12 1015.6 1012.1 0.0
21/01:00pm 32.8 26.9 -10.5 5 18.2 WNW 15 28 8 15 1016.2 1012.7 0.0
21/12:30pm 32.8 27.2 -6.2 8 17.6 WNW 15 24 8 13 1016.6 1013.2 0.0
21/12:00pm 32.4 26.5 -5.8 8 17.3 NNE 17 26 9 14 1017.3 1013.8 0.0
21/11:30am 30.6 24.3 -3.9 10 15.9 N 20 33 11 18 1017.9 1014.4 0.0
21/11:00am 30.5 23.7 -5.3 9 16.1 N 22 32 12 17 1018.1 1014.7 0.0
21/10:30am 29.2 22.1 -4.5 11 15.2 N 24 32 13 17 1018.6 1015.2 0.0
21/10:00am 28.5 22.1 -5.0 11 14.9 N 20 28 11 15 1018.8 1015.4 0.0
21/09:30am 28.2 22.6 -2.8 13 14.3 N 17 26 9 14 1018.8 1015.4 0.0
21/09:00am 26.6 20.6 -3.3 14 13.5 NNE 19 26 10 14 1018.8 1015.4 0.0
21/08:30am 25.8 21.4 -2.1 16 12.8 NE 11 15 6 8 1018.6 1015.2 0.0
21/08:00am 24.2 20.9 -1.2 18 11.7 ENE 6 7 3 4 1018.4 1015.0 0.0
21/07:30am 22.1 18.9 -0.6 22 10.4 ENE 6 9 3 5 1018.0 1014.6 0.0
21/07:00am 19.9 16.8 0.2 26 9.0 ENE 6 9 3 5 1017.7 1014.2 0.0
21/06:30am 18.9 15.6 -1.3 25 8.9 ENE 6 13 3 7 1017.4 1013.9 0.0
21/06:00am 21.5 17.7 -0.7 22 10.1 ENE 9 13 5 7 1016.9 1013.5 0.0
21/05:30am 21.0 17.6 -0.5 23 9.8 ENE 7 13 4 7 1016.6 1013.2 0.0
21/05:00am 21.0 18.6 -0.5 23 9.8 ENE 2 7 1 4 1016.3 1012.8 0.0
21/04:30am 22.4 17.1 -0.7 21 10.6 ENE 17 24 9 13 1016.0 1012.5 0.0
21/04:00am 22.7 17.3 -1.2 20 10.9 NE 17 26 9 14 1016.0 1012.5 0.0
21/03:30am 23.1 17.1 -1.2 20 11.1 NE 20 32 11 17 1016.0 1012.5 0.0
21/03:00am 23.5 17.0 -2.4 17 11.6 ENE 22 30 12 16 1016.0 1012.5 0.0
21/02:30am 23.7 17.3 -1.9 18 11.6 ENE 22 32 12 17 1015.9 1012.4 0.0
21/02:00am 23.7 17.7 -2.8 17 11.8 ESE 19 24 10 13 1016.1 1012.6 0.0
21/01:30am 23.3 17.8 -2.0 18 11.4 SSW 17 20 9 11 1016.3 1012.8 0.0
21/01:00am 23.4 17.9 -2.2 18 11.5 SW 17 20 9 11 1016.7 1013.3 0.0
21/12:30am 24.1 19.0 -2.3 17 11.9 SW 15 19 8 10 1017.0 1013.6 0.0
21/12:00am 24.8 19.6 -2.8 16 12.4 WSW 15 20 8 11 1017.4 1013.9 0.0
 
Date/Time
CST
Temp
°C
App
Temp
°C
Dew
Point
°C
Rel
Hum
%
Delta-T
°C
Wind Press
QNH
hPa
Press
MSL
hPa
Rain since
9am
mm
Dir  Spd
km/h
Gust
km/h
Spd
kts
Gust
kts
20/11:30pm 21.4 16.7 -1.7 21 10.3 WSW 13 15 7 8 1017.9 1014.4 0.0
20/11:00pm 21.8 17.1 -1.6 21 10.5 WSW 13 15 7 8 1018.2 1014.8 0.0
20/10:30pm 24.1 19.4 -1.9 17 11.8 WSW 13 17 7 9 1018.3 1014.9 0.0
20/10:00pm 24.2 19.6 -1.2 18 11.7 WSW 13 15 7 8 1018.3 1014.9 0.0
20/09:30pm 24.1 19.3 -2.7 16 12.0 WSW 13 15 7 8 1018.2 1014.8 0.0
20/09:00pm 24.2 20.2 -2.5 17 12.0 WSW 9 13 5 7 1017.9 1014.4 0.0
20/08:30pm 26.6 22.6 0.2 18 12.7 WSW 11 13 6 7 1017.5 1014.0 0.0
20/08:00pm 27.6 23.8 -1.1 15 13.6 WSW 9 13 5 7 1017.1 1013.7 0.0
20/07:30pm 28.2 25.1 1.1 17 13.4 WSW 7 9 4 5 1016.7 1013.3 0.0

Other Formats:

Comma delimited format used in spreadsheet applications
http://www.bom.gov.au/fwo/IDD60801/IDD60801.94461.axf

JavaScript Object Notation format (JSON) in row-major order
http://www.bom.gov.au/fwo/IDD60801/IDD60801.94461.json